createdAt,value
2017-12-26T00:00:45.496Z,0.00
2017-12-26T00:01:45.456Z,0.00
2017-12-26T00:02:45.421Z,0.00
2017-12-26T00:03:45.396Z,0.00
2017-12-26T00:04:45.372Z,0.00
2017-12-26T00:05:45.584Z,0.00
2017-12-26T00:06:45.302Z,0.00
2017-12-26T00:07:45.317Z,0.00
2017-12-26T00:08:45.256Z,0.00
2017-12-26T00:09:45.229Z,0.00
2017-12-26T00:10:45.198Z,0.00
2017-12-26T00:11:45.468Z,0.00
2017-12-26T00:12:45.128Z,0.00
2017-12-26T00:13:45.107Z,0.00
2017-12-26T00:14:45.082Z,0.00
2017-12-26T00:15:45.044Z,0.00
2017-12-26T00:16:45.019Z,0.00
2017-12-26T00:17:44.988Z,0.00
2017-12-26T00:18:44.960Z,0.00
2017-12-26T00:19:44.933Z,0.00
2017-12-26T00:20:44.906Z,0.00
2017-12-26T00:21:44.880Z,0.00
2017-12-26T00:22:44.844Z,0.00
2017-12-26T00:23:44.817Z,0.00
2017-12-26T00:24:44.783Z,0.00
2017-12-26T00:25:44.764Z,0.00
2017-12-26T00:26:44.729Z,0.00
2017-12-26T00:27:44.694Z,0.00
2017-12-26T00:28:44.672Z,0.00
2017-12-26T00:29:44.638Z,0.00
2017-12-26T00:30:44.603Z,0.00
2017-12-26T00:31:44.576Z,0.00
2017-12-26T00:32:44.544Z,0.00
2017-12-26T00:33:44.520Z,0.00
2017-12-26T00:34:44.490Z,0.00
2017-12-26T00:35:44.768Z,0.00
2017-12-26T00:36:44.432Z,0.00
2017-12-26T00:37:44.419Z,0.00
2017-12-26T00:38:44.480Z,0.00
2017-12-26T00:39:44.348Z,0.00
2017-12-26T00:40:44.324Z,0.00
2017-12-26T00:41:44.290Z,0.00
2017-12-26T00:42:44.259Z,0.00
2017-12-26T00:43:44.236Z,0.00
2017-12-26T00:44:44.201Z,0.00
2017-12-26T00:45:44.174Z,0.00
2017-12-26T00:46:44.151Z,0.00
2017-12-26T00:47:44.411Z,0.00
2017-12-26T00:48:44.081Z,0.00
2017-12-26T00:49:44.060Z,0.00
2017-12-26T00:50:44.023Z,0.00
2017-12-26T00:51:44.002Z,0.00
2017-12-26T00:52:43.962Z,0.00
2017-12-26T00:53:43.938Z,0.00
2017-12-26T00:54:43.912Z,0.00
2017-12-26T00:55:43.887Z,0.00
2017-12-26T00:56:43.860Z,0.00
2017-12-26T00:57:43.820Z,0.00
2017-12-26T00:58:43.787Z,0.00
2017-12-26T00:59:43.769Z,0.00
2017-12-26T01:00:43.739Z,0.00
2017-12-26T01:01:43.698Z,0.00
2017-12-26T01:02:43.669Z,0.00
2017-12-26T01:03:43.646Z,0.00
2017-12-26T01:04:43.613Z,0.00
2017-12-26T01:05:43.886Z,0.00
2017-12-26T01:06:43.567Z,0.00
2017-12-26T01:07:43.522Z,0.00
2017-12-26T01:08:43.535Z,0.00
2017-12-26T01:09:43.479Z,0.00
2017-12-26T01:10:43.446Z,0.00
2017-12-26T01:11:43.670Z,0.00
2017-12-26T01:12:43.384Z,0.00
2017-12-26T01:13:43.356Z,0.00
2017-12-26T01:14:43.317Z,0.00
2017-12-26T01:15:43.299Z,0.00
2017-12-26T01:16:43.267Z,0.00
2017-12-26T01:17:43.236Z,0.00
2017-12-26T01:18:43.201Z,0.00
2017-12-26T01:19:43.174Z,0.00
2017-12-26T01:20:43.144Z,0.00
2017-12-26T01:21:43.124Z,0.00
2017-12-26T01:22:43.098Z,0.00
2017-12-26T01:23:43.355Z,0.00
2017-12-26T01:24:43.026Z,0.00
2017-12-26T01:25:43.001Z,0.00
2017-12-26T01:26:42.973Z,0.00
2017-12-26T01:27:42.942Z,0.00
2017-12-26T01:28:42.925Z,0.00
2017-12-26T01:29:42.884Z,0.00
2017-12-26T01:30:42.862Z,0.00
2017-12-26T01:31:42.823Z,0.00
2017-12-26T01:32:42.803Z,0.00
2017-12-26T01:33:42.764Z,0.00
2017-12-26T01:34:42.732Z,0.00
2017-12-26T01:35:43.012Z,0.00
2017-12-26T01:36:42.695Z,0.00
2017-12-26T01:37:42.656Z,0.00
2017-12-26T01:38:42.621Z,0.00
2017-12-26T01:39:42.589Z,0.00
2017-12-26T01:40:42.564Z,0.00
2017-12-26T01:41:42.539Z,0.00
2017-12-26T01:42:42.509Z,0.00
2017-12-26T01:43:42.475Z,0.00
2017-12-26T01:44:42.450Z,0.00
2017-12-26T01:45:42.425Z,0.00
2017-12-26T01:46:42.385Z,0.00
2017-12-26T01:47:42.359Z,0.00
2017-12-26T01:48:42.334Z,0.00
2017-12-26T01:49:42.293Z,0.00
2017-12-26T01:50:42.271Z,0.00
2017-12-26T01:51:42.237Z,0.00
2017-12-26T01:52:42.211Z,0.00
2017-12-26T01:53:42.193Z,0.00
2017-12-26T01:54:42.157Z,0.00
2017-12-26T01:55:42.118Z,0.00
2017-12-26T01:56:42.087Z,0.00
2017-12-26T01:57:42.066Z,0.00
2017-12-26T01:58:42.339Z,0.00
2017-12-26T01:59:42.016Z,0.00
2017-12-26T02:00:41.995Z,0.00
2017-12-26T02:01:41.948Z,0.00
2017-12-26T02:02:41.919Z,0.00
2017-12-26T02:03:41.892Z,0.00
2017-12-26T02:04:42.111Z,0.00
2017-12-26T02:05:41.830Z,0.00
2017-12-26T02:06:41.806Z,0.00
2017-12-26T02:07:41.766Z,0.00
2017-12-26T02:08:41.739Z,0.00
2017-12-26T02:09:41.715Z,0.00
2017-12-26T02:10:41.991Z,0.00
2017-12-26T02:11:41.655Z,0.00
2017-12-26T02:12:41.619Z,0.00
2017-12-26T02:13:41.593Z,0.00
2017-12-26T02:14:41.566Z,0.00
2017-12-26T02:15:41.544Z,0.00
2017-12-26T02:16:41.505Z,0.00
2017-12-26T02:17:41.473Z,0.00
2017-12-26T02:18:41.443Z,0.00
2017-12-26T02:19:41.421Z,0.00
2017-12-26T02:20:41.393Z,0.00
2017-12-26T02:21:41.370Z,0.00
2017-12-26T02:22:41.327Z,0.00
2017-12-26T02:23:41.307Z,0.00
2017-12-26T02:24:41.268Z,0.00
2017-12-26T02:25:41.243Z,0.00
2017-12-26T02:26:41.220Z,0.00
2017-12-26T02:27:41.189Z,0.00
2017-12-26T02:28:41.154Z,0.00
2017-12-26T02:29:41.126Z,0.00
2017-12-26T02:30:41.092Z,0.00
2017-12-26T02:31:41.064Z,0.00
2017-12-26T02:32:41.045Z,0.00
2017-12-26T02:33:41.016Z,0.00
2017-12-26T02:34:40.976Z,0.00
2017-12-26T02:35:40.952Z,0.00
2017-12-26T02:36:40.925Z,0.00
2017-12-26T02:37:40.896Z,0.00
2017-12-26T02:38:40.860Z,0.00
2017-12-26T02:39:40.840Z,0.00
2017-12-26T02:40:41.112Z,0.00
2017-12-26T02:41:40.767Z,0.00
2017-12-26T02:42:40.745Z,0.00
2017-12-26T02:43:40.712Z,0.00
2017-12-26T02:44:40.688Z,0.00
2017-12-26T02:45:40.652Z,0.00
2017-12-26T02:46:40.630Z,0.00
2017-12-26T02:47:40.593Z,0.00
2017-12-26T02:48:40.568Z,0.00
2017-12-26T02:49:40.538Z,0.00
2017-12-26T02:50:40.521Z,0.00
2017-12-26T02:51:40.481Z,0.00
2017-12-26T02:52:40.445Z,0.00
2017-12-26T02:53:40.419Z,0.00
2017-12-26T02:54:40.391Z,0.00
2017-12-26T02:55:40.363Z,0.00
2017-12-26T02:56:40.339Z,0.00
2017-12-26T02:57:40.299Z,0.00
2017-12-26T02:58:40.525Z,0.00
2017-12-26T02:59:40.248Z,0.00
2017-12-26T03:00:40.216Z,0.00
2017-12-26T03:01:40.179Z,0.00
2017-12-26T03:02:40.152Z,0.00
2017-12-26T03:03:40.127Z,0.00
2017-12-26T03:04:40.094Z,0.00
2017-12-26T03:05:40.067Z,0.00
2017-12-26T03:06:40.043Z,0.00
2017-12-26T03:07:40.012Z,0.00
2017-12-26T03:08:39.976Z,0.00
2017-12-26T03:09:39.956Z,0.00
2017-12-26T03:10:39.924Z,0.00
2017-12-26T03:11:39.900Z,0.00
2017-12-26T03:12:39.856Z,0.00
2017-12-26T03:13:39.825Z,0.00
2017-12-26T03:14:39.800Z,0.00
2017-12-26T03:15:39.766Z,0.00
2017-12-26T03:16:39.740Z,0.00
2017-12-26T03:17:39.719Z,0.00
2017-12-26T03:18:39.683Z,0.00
2017-12-26T03:19:39.648Z,0.00
2017-12-26T03:20:39.622Z,0.00
2017-12-26T03:21:39.598Z,0.00
2017-12-26T03:22:39.568Z,0.00
2017-12-26T03:23:39.527Z,0.00
2017-12-26T03:24:39.506Z,0.00
2017-12-26T03:25:39.488Z,0.00
2017-12-26T03:26:39.450Z,0.00
2017-12-26T03:27:39.413Z,0.00
2017-12-26T03:28:39.691Z,0.00
2017-12-26T03:29:39.350Z,0.00
2017-12-26T03:30:39.327Z,0.00
2017-12-26T03:31:39.296Z,0.00
2017-12-26T03:32:39.273Z,0.00
2017-12-26T03:33:39.230Z,0.00
2017-12-26T03:34:39.206Z,0.00
2017-12-26T03:35:39.177Z,0.00
2017-12-26T03:36:39.141Z,0.00
2017-12-26T03:37:39.123Z,0.00
2017-12-26T03:38:39.087Z,0.00
2017-12-26T03:39:39.056Z,0.00
2017-12-26T03:40:39.023Z,0.00
2017-12-26T03:41:39.006Z,0.00
2017-12-26T03:42:38.971Z,0.00
2017-12-26T03:43:38.944Z,0.00
2017-12-26T03:44:38.909Z,0.00
2017-12-26T03:45:38.882Z,0.00
2017-12-26T03:46:38.847Z,0.00
2017-12-26T03:47:38.819Z,0.00
2017-12-26T03:48:38.788Z,0.00
2017-12-26T03:49:38.762Z,0.00
2017-12-26T03:50:38.731Z,0.00
2017-12-26T03:51:38.699Z,0.00
2017-12-26T03:52:38.676Z,0.00
2017-12-26T03:53:38.641Z,0.00
2017-12-26T03:54:38.610Z,0.00
2017-12-26T03:55:38.583Z,0.00
2017-12-26T03:56:38.560Z,0.00
2017-12-26T03:57:38.533Z,0.00
2017-12-26T03:58:38.500Z,0.00
2017-12-26T03:59:38.462Z,0.00
2017-12-26T04:00:38.433Z,0.00
2017-12-26T04:01:38.401Z,0.00
2017-12-26T04:02:38.368Z,0.00
2017-12-26T04:03:38.344Z,0.00
2017-12-26T04:04:38.324Z,0.00
2017-12-26T04:05:38.281Z,0.00
2017-12-26T04:06:38.259Z,0.00
2017-12-26T04:07:38.236Z,0.00
2017-12-26T04:08:38.194Z,0.00
2017-12-26T04:09:38.165Z,0.00
2017-12-26T04:10:38.987Z,0.00
2017-12-26T04:11:38.110Z,0.00
2017-12-26T04:12:38.084Z,0.00
2017-12-26T04:13:38.047Z,0.00
2017-12-26T04:14:38.016Z,0.00
2017-12-26T04:15:37.995Z,0.00
2017-12-26T04:16:37.959Z,0.00
2017-12-26T04:17:37.924Z,0.00
2017-12-26T04:18:37.897Z,0.00
2017-12-26T04:19:37.874Z,0.00
2017-12-26T04:20:37.842Z,0.00
2017-12-26T04:21:37.805Z,0.00
2017-12-26T04:22:37.792Z,0.00
2017-12-26T04:23:37.744Z,0.00
2017-12-26T04:24:37.714Z,0.00
2017-12-26T04:25:37.695Z,0.00
2017-12-26T04:26:37.668Z,0.00
2017-12-26T04:27:37.626Z,0.00
2017-12-26T04:28:37.607Z,0.00
2017-12-26T04:29:37.582Z,0.00
2017-12-26T04:30:37.543Z,0.00
2017-12-26T04:31:37.508Z,0.00
2017-12-26T04:32:37.490Z,0.00
2017-12-26T04:33:37.453Z,0.00
2017-12-26T04:34:37.715Z,0.00
2017-12-26T04:35:37.393Z,0.00
2017-12-26T04:36:37.355Z,0.00
2017-12-26T04:37:37.339Z,0.00
2017-12-26T04:38:37.300Z,0.00
2017-12-26T04:39:37.271Z,0.00
2017-12-26T04:40:37.247Z,0.00
2017-12-26T04:41:37.208Z,0.00
2017-12-26T04:42:37.181Z,0.00
2017-12-26T04:43:37.157Z,0.00
2017-12-26T04:44:37.138Z,0.00
2017-12-26T04:45:37.092Z,0.00
2017-12-26T04:46:37.069Z,0.00
2017-12-26T04:47:37.025Z,0.00
2017-12-26T04:48:36.994Z,0.00
2017-12-26T04:49:36.969Z,0.00
2017-12-26T04:50:36.948Z,0.00
2017-12-26T04:51:36.913Z,0.00
2017-12-26T04:52:36.881Z,0.00
2017-12-26T04:53:36.851Z,0.00
2017-12-26T04:54:36.832Z,0.00
2017-12-26T04:55:36.801Z,0.00
2017-12-26T04:56:36.763Z,0.00
2017-12-26T04:57:36.727Z,0.00
2017-12-26T04:58:36.946Z,0.00
2017-12-26T04:59:36.668Z,0.00
2017-12-26T05:00:36.647Z,0.00
2017-12-26T05:01:36.608Z,0.00
2017-12-26T05:02:36.570Z,0.00
2017-12-26T05:03:36.554Z,0.00
2017-12-26T05:04:36.760Z,0.00
2017-12-26T05:05:36.493Z,0.00
2017-12-26T05:06:36.469Z,0.00
2017-12-26T05:07:36.433Z,0.00
2017-12-26T05:08:36.398Z,0.00
2017-12-26T05:09:36.371Z,0.00
2017-12-26T05:10:36.340Z,0.00
2017-12-26T05:11:36.310Z,0.00
2017-12-26T05:12:36.285Z,0.00
2017-12-26T05:13:36.240Z,0.00
2017-12-26T05:14:36.206Z,0.00
2017-12-26T05:15:36.188Z,0.00
2017-12-26T05:16:36.152Z,0.00
2017-12-26T05:17:36.116Z,0.00
2017-12-26T05:18:36.086Z,0.00
2017-12-26T05:19:36.055Z,0.00
2017-12-26T05:20:36.029Z,0.00
2017-12-26T05:21:36.006Z,0.00
2017-12-26T05:22:35.975Z,0.00
2017-12-26T05:23:35.944Z,0.00
2017-12-26T05:24:35.911Z,0.00
2017-12-26T05:25:35.888Z,0.00
2017-12-26T05:26:35.857Z,0.00
2017-12-26T05:27:35.819Z,0.00
2017-12-26T05:28:35.786Z,0.00
2017-12-26T05:29:35.751Z,0.00
2017-12-26T05:30:35.727Z,0.00
2017-12-26T05:31:35.702Z,0.00
2017-12-26T05:32:35.675Z,0.00
2017-12-26T05:33:35.635Z,0.00
2017-12-26T05:34:35.859Z,0.00
2017-12-26T05:35:35.579Z,0.00
2017-12-26T05:36:35.538Z,0.00
2017-12-26T05:37:35.511Z,0.00
2017-12-26T05:38:35.481Z,0.00
2017-12-26T05:39:35.449Z,0.00
2017-12-26T05:40:35.732Z,0.00
2017-12-26T05:41:35.401Z,0.00
2017-12-26T05:42:35.370Z,0.00
2017-12-26T05:43:35.329Z,0.00
2017-12-26T05:44:35.299Z,0.00
2017-12-26T05:45:35.266Z,0.00
2017-12-26T05:46:35.233Z,0.00
2017-12-26T05:47:35.215Z,0.00
2017-12-26T05:48:35.177Z,0.00
2017-12-26T05:49:35.144Z,0.00
2017-12-26T05:50:35.112Z,0.00
2017-12-26T05:51:35.091Z,0.00
2017-12-26T05:52:35.353Z,0.00
2017-12-26T05:53:35.024Z,0.00
2017-12-26T05:54:35.000Z,0.00
2017-12-26T05:55:34.965Z,0.00
2017-12-26T05:56:34.933Z,0.00
2017-12-26T05:57:34.913Z,0.00
2017-12-26T05:58:34.873Z,0.00
2017-12-26T05:59:34.839Z,0.00
2017-12-26T06:00:34.818Z,0.00
2017-12-26T06:01:34.778Z,0.00
2017-12-26T06:02:34.745Z,0.00
2017-12-26T06:03:34.717Z,0.00
2017-12-26T06:04:34.686Z,0.00
2017-12-26T06:05:34.661Z,0.00
2017-12-26T06:06:34.621Z,0.00
2017-12-26T06:07:34.599Z,0.00
2017-12-26T06:08:34.560Z,0.00
2017-12-26T06:09:34.540Z,0.00
2017-12-26T06:10:34.503Z,0.00
2017-12-26T06:11:34.474Z,0.00
2017-12-26T06:12:34.437Z,0.00
2017-12-26T06:13:34.417Z,0.00
2017-12-26T06:14:34.379Z,0.00
2017-12-26T06:15:34.364Z,0.00
2017-12-26T06:16:34.575Z,0.00
2017-12-26T06:17:34.297Z,0.00
2017-12-26T06:18:34.251Z,0.00
2017-12-26T06:19:34.236Z,0.00
2017-12-26T06:20:34.197Z,0.00
2017-12-26T06:21:34.167Z,0.00
2017-12-26T06:22:34.146Z,0.00
2017-12-26T06:23:34.099Z,0.00
2017-12-26T06:24:34.071Z,0.00
2017-12-26T06:25:34.050Z,0.00
2017-12-26T06:26:34.017Z,0.00
2017-12-26T06:27:33.986Z,0.00
2017-12-26T06:28:33.948Z,0.00
2017-12-26T06:29:33.925Z,0.00
2017-12-26T06:30:33.896Z,0.00
2017-12-26T06:31:33.863Z,0.00
2017-12-26T06:32:33.829Z,0.00
2017-12-26T06:33:33.797Z,0.00
2017-12-26T06:34:34.070Z,0.00
2017-12-26T06:35:33.745Z,0.00
2017-12-26T06:36:33.710Z,0.00
2017-12-26T06:37:33.669Z,0.00
2017-12-26T06:38:33.644Z,0.00
2017-12-26T06:39:33.617Z,0.00
2017-12-26T06:40:33.577Z,0.00
2017-12-26T06:41:33.559Z,0.00
2017-12-26T06:42:33.522Z,0.00
2017-12-26T06:43:33.489Z,0.00
2017-12-26T06:44:33.458Z,0.00
2017-12-26T06:45:33.433Z,0.00
2017-12-26T06:46:33.396Z,0.00
2017-12-26T06:47:33.370Z,0.00
2017-12-26T06:48:33.329Z,0.00
2017-12-26T06:49:33.313Z,0.00
2017-12-26T06:50:33.277Z,0.00
2017-12-26T06:51:33.248Z,0.00
2017-12-26T06:52:33.215Z,0.00
2017-12-26T06:53:33.186Z,0.00
2017-12-26T06:54:33.153Z,0.00
2017-12-26T06:55:33.125Z,0.00
2017-12-26T06:56:33.096Z,0.00
2017-12-26T06:57:33.054Z,0.00
2017-12-26T06:58:33.378Z,0.00
2017-12-26T06:59:33.004Z,0.00
2017-12-26T07:00:32.978Z,0.00
2017-12-26T07:01:32.942Z,0.00
2017-12-26T07:02:32.906Z,0.00
2017-12-26T07:03:32.867Z,0.00
2017-12-26T07:04:33.101Z,0.00
2017-12-26T07:05:32.818Z,0.00
2017-12-26T07:06:32.790Z,0.00
2017-12-26T07:07:32.744Z,0.00
2017-12-26T07:08:32.717Z,0.00
2017-12-26T07:09:32.701Z,0.00
2017-12-26T07:10:33.009Z,0.00
2017-12-26T07:11:32.629Z,0.00
2017-12-26T07:12:32.597Z,0.00
2017-12-26T07:13:32.563Z,0.00
2017-12-26T07:14:32.532Z,0.00
2017-12-26T07:15:32.506Z,0.00
2017-12-26T07:16:32.482Z,0.00
2017-12-26T07:17:32.440Z,0.00
2017-12-26T07:18:32.413Z,0.00
2017-12-26T07:19:32.382Z,0.00
2017-12-26T07:20:32.350Z,0.00
2017-12-26T07:21:32.322Z,0.00
2017-12-26T07:22:32.543Z,0.00
2017-12-26T07:23:32.264Z,0.00
2017-12-26T07:24:32.235Z,0.00
2017-12-26T07:25:32.201Z,0.00
2017-12-26T07:26:32.171Z,0.00
2017-12-26T07:27:32.447Z,0.00
2017-12-26T07:28:32.117Z,0.00
2017-12-26T07:29:32.082Z,5.63
2017-12-26T07:30:32.049Z,5.63
2017-12-26T07:31:32.024Z,5.63
2017-12-26T07:32:31.997Z,5.63
2017-12-26T07:33:31.961Z,5.63
2017-12-26T07:34:31.930Z,5.63
2017-12-26T07:35:31.899Z,5.63
2017-12-26T07:36:31.866Z,5.63
2017-12-26T07:37:31.846Z,5.63
2017-12-26T07:38:31.815Z,5.63
2017-12-26T07:39:32.129Z,5.63
2017-12-26T07:40:31.754Z,5.63
2017-12-26T07:41:31.725Z,5.63
2017-12-26T07:42:31.688Z,5.63
2017-12-26T07:43:31.668Z,11.25
2017-12-26T07:44:31.638Z,11.25
2017-12-26T07:45:31.596Z,11.25
2017-12-26T07:46:31.564Z,16.88
2017-12-26T07:47:31.539Z,16.88
2017-12-26T07:48:31.524Z,22.50
2017-12-26T07:49:31.484Z,22.50
2017-12-26T07:50:31.449Z,28.13
2017-12-26T07:51:31.419Z,33.75
2017-12-26T07:52:31.394Z,39.38
2017-12-26T07:53:31.370Z,50.63
2017-12-26T07:54:31.341Z,56.25
2017-12-26T07:55:31.306Z,45.00
2017-12-26T07:56:31.275Z,39.38
2017-12-26T07:57:31.253Z,50.63
2017-12-26T07:58:31.212Z,56.25
2017-12-26T07:59:31.185Z,61.88
2017-12-26T08:00:31.154Z,67.50
2017-12-26T08:01:31.141Z,78.75
2017-12-26T08:02:31.394Z,56.25
2017-12-26T08:03:31.072Z,56.25
2017-12-26T08:04:31.043Z,56.25
2017-12-26T08:05:31.009Z,56.25
2017-12-26T08:06:30.975Z,56.25
2017-12-26T08:07:30.944Z,61.88
2017-12-26T08:08:31.174Z,67.50
2017-12-26T08:09:30.899Z,73.13
2017-12-26T08:10:30.857Z,78.75
2017-12-26T08:11:30.833Z,67.50
2017-12-26T08:12:30.808Z,67.50
2017-12-26T08:13:30.774Z,78.75
2017-12-26T08:14:30.748Z,84.38
2017-12-26T08:15:30.721Z,90.00
2017-12-26T08:16:30.690Z,90.00
2017-12-26T08:17:30.649Z,101.25
2017-12-26T08:18:30.631Z,95.63
2017-12-26T08:19:30.606Z,90.00
2017-12-26T08:20:30.826Z,78.75
2017-12-26T08:21:30.540Z,56.25
2017-12-26T08:22:30.504Z,56.25
2017-12-26T08:23:30.473Z,56.25
2017-12-26T08:24:30.446Z,67.50
2017-12-26T08:25:30.432Z,67.50
2017-12-26T08:26:30.397Z,73.13
2017-12-26T08:27:30.357Z,106.88
2017-12-26T08:28:30.327Z,123.75
2017-12-26T08:29:30.309Z,123.75
2017-12-26T08:30:30.278Z,112.50
2017-12-26T08:31:30.250Z,101.25
2017-12-26T08:32:30.222Z,101.25
2017-12-26T08:33:30.190Z,129.38
2017-12-26T08:34:30.156Z,112.50
2017-12-26T08:35:30.133Z,90.00
2017-12-26T08:36:30.106Z,61.88
2017-12-26T08:37:30.077Z,61.88
2017-12-26T08:38:30.046Z,67.50
2017-12-26T08:39:30.008Z,78.75
2017-12-26T08:40:29.983Z,84.38
2017-12-26T08:41:29.962Z,84.38
2017-12-26T08:42:29.939Z,101.25
2017-12-26T08:43:29.905Z,112.50
2017-12-26T08:44:29.869Z,129.38
2017-12-26T08:45:29.851Z,135.00
2017-12-26T08:46:29.818Z,151.88
2017-12-26T08:47:29.790Z,168.75
2017-12-26T08:48:29.752Z,202.50
2017-12-26T08:49:29.722Z,196.88
2017-12-26T08:50:29.691Z,241.88
2017-12-26T08:51:29.665Z,258.75
2017-12-26T08:52:29.644Z,225.00
2017-12-26T08:53:29.610Z,309.38
2017-12-26T08:54:29.579Z,303.75
2017-12-26T08:55:29.559Z,230.63
2017-12-26T08:56:29.825Z,208.13
2017-12-26T08:57:29.495Z,196.88
2017-12-26T08:58:29.475Z,191.25
2017-12-26T08:59:29.434Z,196.88
2017-12-26T09:00:29.405Z,157.50
2017-12-26T09:01:29.381Z,140.63
2017-12-26T09:02:29.356Z,140.63
2017-12-26T09:03:29.322Z,129.38
2017-12-26T09:04:29.296Z,135.00
2017-12-26T09:05:29.262Z,135.00
2017-12-26T09:06:29.233Z,140.63
2017-12-26T09:07:29.216Z,151.88
2017-12-26T09:08:29.181Z,146.25
2017-12-26T09:09:29.146Z,140.63
2017-12-26T09:10:29.118Z,129.38
2017-12-26T09:11:29.096Z,129.38
2017-12-26T09:12:29.060Z,112.50
2017-12-26T09:13:29.039Z,106.88
2017-12-26T09:14:29.009Z,95.63
2017-12-26T09:15:28.985Z,101.25
2017-12-26T09:16:28.958Z,112.50
2017-12-26T09:17:28.924Z,118.13
2017-12-26T09:18:28.891Z,118.13
2017-12-26T09:19:28.866Z,129.38
2017-12-26T09:20:28.841Z,123.75
2017-12-26T09:21:28.813Z,101.25
2017-12-26T09:22:28.778Z,101.25
2017-12-26T09:23:28.754Z,84.38
2017-12-26T09:24:28.720Z,90.00
2017-12-26T09:25:28.689Z,95.63
2017-12-26T09:26:28.655Z,95.63
2017-12-26T09:27:28.632Z,140.63
2017-12-26T09:28:28.609Z,135.00
2017-12-26T09:29:28.579Z,135.00
2017-12-26T09:30:28.552Z,112.50
2017-12-26T09:31:28.776Z,129.38
2017-12-26T09:32:28.486Z,135.00
2017-12-26T09:33:28.460Z,174.38
2017-12-26T09:34:28.429Z,174.38
2017-12-26T09:35:28.415Z,174.38
2017-12-26T09:36:28.375Z,208.13
2017-12-26T09:37:28.346Z,208.13
2017-12-26T09:38:28.322Z,196.88
2017-12-26T09:39:28.285Z,191.25
2017-12-26T09:40:28.264Z,241.88
2017-12-26T09:41:28.236Z,247.50
2017-12-26T09:42:28.192Z,185.63
2017-12-26T09:43:28.515Z,157.50
2017-12-26T09:44:28.149Z,123.75
2017-12-26T09:45:28.114Z,140.63
2017-12-26T09:46:28.091Z,157.50
2017-12-26T09:47:28.056Z,163.13
2017-12-26T09:48:28.021Z,174.38
2017-12-26T09:49:27.995Z,140.63
2017-12-26T09:50:27.973Z,174.38
2017-12-26T09:51:27.944Z,174.38
2017-12-26T09:52:27.911Z,157.50
2017-12-26T09:53:27.885Z,163.13
2017-12-26T09:54:27.849Z,185.63
2017-12-26T09:55:27.831Z,185.63
2017-12-26T09:56:27.795Z,292.50
2017-12-26T09:57:27.766Z,241.88
2017-12-26T09:58:27.744Z,174.38
2017-12-26T09:59:27.711Z,230.63
2017-12-26T10:00:27.683Z,258.75
2017-12-26T10:01:27.660Z,202.50
2017-12-26T10:02:27.626Z,180.00
2017-12-26T10:03:27.592Z,106.88
2017-12-26T10:04:27.567Z,112.50
2017-12-26T10:05:27.536Z,202.50
2017-12-26T10:06:27.814Z,230.63
2017-12-26T10:07:27.479Z,219.38
2017-12-26T10:08:27.457Z,146.25
2017-12-26T10:09:27.414Z,129.38
2017-12-26T10:10:27.388Z,185.63
2017-12-26T10:11:27.362Z,241.88
2017-12-26T10:12:27.340Z,163.13
2017-12-26T10:13:27.309Z,84.38
2017-12-26T10:14:27.278Z,90.00
2017-12-26T10:15:27.251Z,185.63
2017-12-26T10:16:27.214Z,258.75
2017-12-26T10:17:27.196Z,236.25
2017-12-26T10:18:27.164Z,213.75
2017-12-26T10:19:27.129Z,202.50
2017-12-26T10:20:27.105Z,236.25
2017-12-26T10:21:27.073Z,281.25
2017-12-26T10:22:27.049Z,298.13
2017-12-26T10:23:27.022Z,326.25
2017-12-26T10:24:26.982Z,315.00
2017-12-26T10:25:26.949Z,309.38
2017-12-26T10:26:26.924Z,292.50
2017-12-26T10:27:26.896Z,275.63
2017-12-26T10:28:26.877Z,281.25
2017-12-26T10:29:26.840Z,286.88
2017-12-26T10:30:26.804Z,264.38
2017-12-26T10:31:26.787Z,253.13
2017-12-26T10:32:26.748Z,258.75
2017-12-26T10:33:26.728Z,270.00
2017-12-26T10:34:26.695Z,264.38
2017-12-26T10:35:26.671Z,281.25
2017-12-26T10:36:26.891Z,286.88
2017-12-26T10:37:26.611Z,292.50
2017-12-26T10:38:26.574Z,281.25
2017-12-26T10:39:26.555Z,264.38
2017-12-26T10:40:26.529Z,241.88
2017-12-26T10:41:26.501Z,225.00
2017-12-26T10:42:26.461Z,225.00
2017-12-26T10:43:26.432Z,247.50
2017-12-26T10:44:26.408Z,281.25
2017-12-26T10:45:26.370Z,309.38
2017-12-26T10:46:26.339Z,303.75
2017-12-26T10:47:26.311Z,275.63
2017-12-26T10:48:26.286Z,258.75
2017-12-26T10:49:26.270Z,258.75
2017-12-26T10:50:26.231Z,253.13
2017-12-26T10:51:26.193Z,292.50
2017-12-26T10:52:26.177Z,286.88
2017-12-26T10:53:26.143Z,292.50
2017-12-26T10:54:26.115Z,281.25
2017-12-26T10:55:26.095Z,309.38
2017-12-26T10:56:26.057Z,343.13
2017-12-26T10:57:26.018Z,337.50
2017-12-26T10:58:26.000Z,343.13
2017-12-26T10:59:25.969Z,337.50
2017-12-26T11:00:25.945Z,309.38
2017-12-26T11:01:25.921Z,303.75
2017-12-26T11:02:25.884Z,298.13
2017-12-26T11:03:25.856Z,331.88
2017-12-26T11:04:25.824Z,343.13
2017-12-26T11:05:25.790Z,298.13
2017-12-26T11:06:25.756Z,275.63
2017-12-26T11:07:25.736Z,264.38
2017-12-26T11:08:25.705Z,247.50
2017-12-26T11:09:25.680Z,230.63
2017-12-26T11:10:25.663Z,208.13
2017-12-26T11:11:25.620Z,191.25
2017-12-26T11:12:25.885Z,196.88
2017-12-26T11:13:25.560Z,230.63
2017-12-26T11:14:25.541Z,275.63
2017-12-26T11:15:25.512Z,196.88
2017-12-26T11:16:25.475Z,185.63
2017-12-26T11:17:25.445Z,258.75
2017-12-26T11:18:25.429Z,253.13
2017-12-26T11:19:25.387Z,247.50
2017-12-26T11:20:25.364Z,230.63
2017-12-26T11:21:25.335Z,196.88
2017-12-26T11:22:25.299Z,168.75
2017-12-26T11:23:25.271Z,180.00
2017-12-26T11:24:25.250Z,202.50
2017-12-26T11:25:25.223Z,196.88
2017-12-26T11:26:25.184Z,230.63
2017-12-26T11:27:25.152Z,303.75
2017-12-26T11:28:25.125Z,315.00
2017-12-26T11:29:25.099Z,315.00
2017-12-26T11:30:25.321Z,258.75
2017-12-26T11:31:25.038Z,202.50
2017-12-26T11:32:25.013Z,168.75
2017-12-26T11:33:24.994Z,168.75
2017-12-26T11:34:24.954Z,191.25
2017-12-26T11:35:24.931Z,213.75
2017-12-26T11:36:25.167Z,191.25
2017-12-26T11:37:24.870Z,146.25
2017-12-26T11:38:24.836Z,101.25
2017-12-26T11:39:24.816Z,101.25
2017-12-26T11:40:24.787Z,123.75
2017-12-26T11:41:24.758Z,123.75
2017-12-26T11:42:24.728Z,157.50
2017-12-26T11:43:24.699Z,140.63
2017-12-26T11:44:24.670Z,123.75
2017-12-26T11:45:24.647Z,112.50
2017-12-26T11:46:24.616Z,112.50
2017-12-26T11:47:24.576Z,101.25
2017-12-26T11:48:24.548Z,123.75
2017-12-26T11:49:24.530Z,151.88
2017-12-26T11:50:24.494Z,146.25
2017-12-26T11:51:24.468Z,129.38
2017-12-26T11:52:24.440Z,106.88
2017-12-26T11:53:24.405Z,101.25
2017-12-26T11:54:24.372Z,112.50
2017-12-26T11:55:24.349Z,129.38
2017-12-26T11:56:24.325Z,146.25
2017-12-26T11:57:24.296Z,180.00
2017-12-26T11:58:24.259Z,123.75
2017-12-26T11:59:24.231Z,146.25
2017-12-26T12:00:24.501Z,196.88
2017-12-26T12:01:24.211Z,163.13
2017-12-26T12:02:24.158Z,123.75
2017-12-26T12:03:24.120Z,140.63
2017-12-26T12:04:24.082Z,174.38
2017-12-26T12:05:24.065Z,151.88
2017-12-26T12:06:24.032Z,140.63
2017-12-26T12:07:24.006Z,225.00
2017-12-26T12:08:23.982Z,241.88
2017-12-26T12:09:23.944Z,275.63
2017-12-26T12:10:23.914Z,258.75
2017-12-26T12:11:23.893Z,286.88
2017-12-26T12:12:24.205Z,315.00
2017-12-26T12:13:23.823Z,281.25
2017-12-26T12:14:23.801Z,264.38
2017-12-26T12:15:23.771Z,208.13
2017-12-26T12:16:23.746Z,225.00
2017-12-26T12:17:23.721Z,236.25
2017-12-26T12:18:23.683Z,236.25
2017-12-26T12:19:23.659Z,309.38
2017-12-26T12:20:23.637Z,360.00
2017-12-26T12:21:23.603Z,360.00
2017-12-26T12:22:23.567Z,348.75
2017-12-26T12:23:23.546Z,360.00
2017-12-26T12:24:23.519Z,410.63
2017-12-26T12:25:23.477Z,416.25
2017-12-26T12:26:23.449Z,410.63
2017-12-26T12:27:23.428Z,433.13
2017-12-26T12:28:23.404Z,393.75
2017-12-26T12:29:23.368Z,371.25
2017-12-26T12:30:23.343Z,405.00
2017-12-26T12:31:23.311Z,376.88
2017-12-26T12:32:23.282Z,410.63
2017-12-26T12:33:23.271Z,399.38
2017-12-26T12:34:23.227Z,416.25
2017-12-26T12:35:23.198Z,405.00
2017-12-26T12:36:23.169Z,438.75
2017-12-26T12:37:23.187Z,489.38
2017-12-26T12:38:23.108Z,551.25
2017-12-26T12:39:23.086Z,573.75
2017-12-26T12:40:23.083Z,579.38
2017-12-26T12:41:23.026Z,601.88
2017-12-26T12:42:23.001Z,748.13
2017-12-26T12:43:22.965Z,646.88
2017-12-26T12:44:22.940Z,646.88
2017-12-26T12:45:22.911Z,562.50
2017-12-26T12:46:22.884Z,416.25
2017-12-26T12:47:22.847Z,376.88
2017-12-26T12:48:23.634Z,438.75
2017-12-26T12:49:22.800Z,579.38
2017-12-26T12:50:22.767Z,1119.38
2017-12-26T12:51:22.751Z,511.88
2017-12-26T12:52:22.719Z,810.00
2017-12-26T12:53:22.697Z,483.75
2017-12-26T12:54:22.916Z,343.13
2017-12-26T12:55:22.638Z,230.63
2017-12-26T12:56:22.603Z,191.25
2017-12-26T12:57:22.570Z,174.38
2017-12-26T12:58:22.548Z,202.50
2017-12-26T12:59:22.532Z,421.88